sensor_id;sensor_type;location;lat;lon;timestamp;P1;durP1;ratioP1;P2;durP2;ratioP2
10851;SDS011;5479;52.046;6.314;2024-01-27T00:02:11;12.70;;;4.33;;
10851;SDS011;5479;52.046;6.314;2024-01-27T00:04:38;13.03;;;3.37;;
10851;SDS011;5479;52.046;6.314;2024-01-27T00:07:06;12.57;;;3.83;;
10851;SDS011;5479;52.046;6.314;2024-01-27T00:09:34;10.10;;;3.53;;
10851;SDS011;5479;52.046;6.314;2024-01-27T00:12:01;13.50;;;4.40;;
10851;SDS011;5479;52.046;6.314;2024-01-27T00:14:30;12.17;;;3.80;;
10851;SDS011;5479;52.046;6.314;2024-01-27T00:16:59;9.70;;;3.60;;
10851;SDS011;5479;52.046;6.314;2024-01-27T00:19:26;11.17;;;4.53;;
10851;SDS011;5479;52.046;6.314;2024-01-27T00:21:54;12.33;;;3.90;;
10851;SDS011;5479;52.046;6.314;2024-01-27T00:24:22;12.97;;;3.77;;
10851;SDS011;5479;52.046;6.314;2024-01-27T00:26:49;9.23;;;3.67;;
10851;SDS011;5479;52.046;6.314;2024-01-27T00:29:17;14.97;;;4.63;;
10851;SDS011;5479;52.046;6.314;2024-01-27T00:31:46;10.43;;;3.93;;
10851;SDS011;5479;52.046;6.314;2024-01-27T00:34:15;10.23;;;3.80;;
10851;SDS011;5479;52.046;6.314;2024-01-27T00:36:43;10.93;;;4.83;;
10851;SDS011;5479;52.046;6.314;2024-01-27T00:39:15;10.23;;;3.50;;
10851;SDS011;5479;52.046;6.314;2024-01-27T00:41:42;14.00;;;5.00;;
10851;SDS011;5479;52.046;6.314;2024-01-27T00:44:10;13.07;;;4.23;;
10851;SDS011;5479;52.046;6.314;2024-01-27T00:46:38;13.00;;;4.30;;
10851;SDS011;5479;52.046;6.314;2024-01-27T00:49:07;11.27;;;4.13;;
10851;SDS011;5479;52.046;6.314;2024-01-27T00:51:35;16.97;;;4.80;;
10851;SDS011;5479;52.046;6.314;2024-01-27T00:54:02;14.33;;;4.03;;
10851;SDS011;5479;52.046;6.314;2024-01-27T00:56:31;11.67;;;4.40;;
10851;SDS011;5479;52.046;6.314;2024-01-27T00:58:59;11.33;;;4.10;;
10851;SDS011;5479;52.046;6.314;2024-01-27T01:01:26;11.47;;;4.13;;
10851;SDS011;5479;52.046;6.314;2024-01-27T01:03:55;14.77;;;4.63;;
10851;SDS011;5479;52.046;6.314;2024-01-27T01:06:24;13.87;;;4.37;;
10851;SDS011;5479;52.046;6.314;2024-01-27T01:08:52;13.13;;;3.80;;
10851;SDS011;5479;52.046;6.314;2024-01-27T01:11:19;15.07;;;3.90;;
10851;SDS011;5479;52.046;6.314;2024-01-27T01:13:47;12.83;;;4.70;;
10851;SDS011;5479;52.046;6.314;2024-01-27T01:16:15;11.60;;;3.60;;
10851;SDS011;5479;52.046;6.314;2024-01-27T01:18:43;10.97;;;3.97;;
10851;SDS011;5479;52.046;6.314;2024-01-27T01:21:10;14.80;;;4.97;;
10851;SDS011;5479;52.046;6.314;2024-01-27T01:23:39;12.73;;;3.87;;
10851;SDS011;5479;52.046;6.314;2024-01-27T01:26:07;11.73;;;3.70;;
10851;SDS011;5479;52.046;6.314;2024-01-27T01:28:35;13.97;;;3.77;;
10851;SDS011;5479;52.046;6.314;2024-01-27T01:33:34;11.47;;;3.80;;
10851;SDS011;5479;52.046;6.314;2024-01-27T01:36:02;10.93;;;3.73;;
10851;SDS011;5479;52.046;6.314;2024-01-27T01:38:29;8.00;;;3.07;;
10851;SDS011;5479;52.046;6.314;2024-01-27T01:40:58;14.80;;;4.70;;
10851;SDS011;5479;52.046;6.314;2024-01-27T01:43:26;9.63;;;4.13;;
10851;SDS011;5479;52.046;6.314;2024-01-27T01:45:54;13.43;;;4.37;;
10851;SDS011;5479;52.046;6.314;2024-01-27T01:48:21;11.70;;;3.87;;
10851;SDS011;5479;52.046;6.314;2024-01-27T01:50:49;10.70;;;4.10;;
10851;SDS011;5479;52.046;6.314;2024-01-27T01:53:17;14.90;;;4.20;;
10851;SDS011;5479;52.046;6.314;2024-01-27T01:55:45;12.73;;;3.83;;
10851;SDS011;5479;52.046;6.314;2024-01-27T01:58:15;15.60;;;4.40;;
10851;SDS011;5479;52.046;6.314;2024-01-27T02:00:42;12.60;;;4.10;;
10851;SDS011;5479;52.046;6.314;2024-01-27T02:03:10;12.27;;;3.80;;
10851;SDS011;5479;52.046;6.314;2024-01-27T02:05:39;8.73;;;4.00;;
10851;SDS011;5479;52.046;6.314;2024-01-27T02:08:06;10.83;;;3.97;;
10851;SDS011;5479;52.046;6.314;2024-01-27T02:10:35;13.47;;;4.40;;
10851;SDS011;5479;52.046;6.314;2024-01-27T02:13:04;11.47;;;4.00;;
10851;SDS011;5479;52.046;6.314;2024-01-27T02:15:34;13.33;;;4.10;;
10851;SDS011;5479;52.046;6.314;2024-01-27T02:18:02;10.27;;;3.90;;
10851;SDS011;5479;52.046;6.314;2024-01-27T02:20:29;11.97;;;4.43;;
10851;SDS011;5479;52.046;6.314;2024-01-27T02:22:57;10.70;;;4.10;;
10851;SDS011;5479;52.046;6.314;2024-01-27T02:25:26;17.20;;;5.67;;
10851;SDS011;5479;52.046;6.314;2024-01-27T02:27:54;11.60;;;4.30;;
10851;SDS011;5479;52.046;6.314;2024-01-27T02:30:22;13.73;;;4.83;;
10851;SDS011;5479;52.046;6.314;2024-01-27T02:32:49;13.43;;;4.77;;
10851;SDS011;5479;52.046;6.314;2024-01-27T02:35:17;12.67;;;4.20;;
10851;SDS011;5479;52.046;6.314;2024-01-27T02:37:45;10.10;;;4.17;;
10851;SDS011;5479;52.046;6.314;2024-01-27T02:40:12;15.93;;;4.57;;
10851;SDS011;5479;52.046;6.314;2024-01-27T02:42:42;13.53;;;4.23;;
10851;SDS011;5479;52.046;6.314;2024-01-27T02:45:11;12.97;;;4.43;;
10851;SDS011;5479;52.046;6.314;2024-01-27T02:47:39;12.87;;;4.70;;
10851;SDS011;5479;52.046;6.314;2024-01-27T02:50:07;11.40;;;4.43;;
10851;SDS011;5479;52.046;6.314;2024-01-27T02:52:35;14.20;;;4.10;;
10851;SDS011;5479;52.046;6.314;2024-01-27T02:55:03;13.67;;;4.73;;
10851;SDS011;5479;52.046;6.314;2024-01-27T02:57:30;11.80;;;4.70;;
10851;SDS011;5479;52.046;6.314;2024-01-27T03:00:00;17.10;;;4.83;;
10851;SDS011;5479;52.046;6.314;2024-01-27T03:02:27;13.57;;;4.23;;
10851;SDS011;5479;52.046;6.314;2024-01-27T03:04:55;13.73;;;4.73;;
10851;SDS011;5479;52.046;6.314;2024-01-27T03:07:23;9.70;;;4.77;;
10851;SDS011;5479;52.046;6.314;2024-01-27T03:09:51;9.13;;;4.70;;
10851;SDS011;5479;52.046;6.314;2024-01-27T03:12:18;11.70;;;5.10;;
10851;SDS011;5479;52.046;6.314;2024-01-27T03:14:49;12.53;;;4.83;;
10851;SDS011;5479;52.046;6.314;2024-01-27T03:17:18;15.10;;;4.53;;
10851;SDS011;5479;52.046;6.314;2024-01-27T03:19:47;11.57;;;5.53;;
10851;SDS011;5479;52.046;6.314;2024-01-27T03:22:15;12.20;;;5.00;;
10851;SDS011;5479;52.046;6.314;2024-01-27T03:24:42;12.07;;;4.47;;
10851;SDS011;5479;52.046;6.314;2024-01-27T03:27:10;15.50;;;4.70;;
10851;SDS011;5479;52.046;6.314;2024-01-27T03:29:38;14.00;;;4.60;;
10851;SDS011;5479;52.046;6.314;2024-01-27T03:32:06;12.23;;;4.60;;
10851;SDS011;5479;52.046;6.314;2024-01-27T03:34:35;11.87;;;4.43;;
10851;SDS011;5479;52.046;6.314;2024-01-27T03:37:02;10.47;;;4.80;;
10851;SDS011;5479;52.046;6.314;2024-01-27T03:39:30;17.07;;;5.10;;
10851;SDS011;5479;52.046;6.314;2024-01-27T03:41:57;11.47;;;4.70;;
10851;SDS011;5479;52.046;6.314;2024-01-27T03:44:25;13.70;;;5.00;;
10851;SDS011;5479;52.046;6.314;2024-01-27T03:46:53;11.80;;;4.97;;
10851;SDS011;5479;52.046;6.314;2024-01-27T03:49:20;12.40;;;5.00;;
10851;SDS011;5479;52.046;6.314;2024-01-27T03:51:49;12.67;;;5.60;;
10851;SDS011;5479;52.046;6.314;2024-01-27T03:54:17;13.03;;;5.47;;
10851;SDS011;5479;52.046;6.314;2024-01-27T03:56:45;12.77;;;4.90;;
10851;SDS011;5479;52.046;6.314;2024-01-27T03:59:12;13.93;;;5.30;;
10851;SDS011;5479;52.046;6.314;2024-01-27T04:01:41;11.67;;;5.03;;
10851;SDS011;5479;52.046;6.314;2024-01-27T04:04:08;11.07;;;5.60;;
10851;SDS011;5479;52.046;6.314;2024-01-27T04:06:36;15.83;;;5.57;;
10851;SDS011;5479;52.046;6.314;2024-01-27T04:09:06;11.97;;;5.27;;
10851;SDS011;5479;52.046;6.314;2024-01-27T04:11:35;13.03;;;5.60;;
10851;SDS011;5479;52.046;6.314;2024-01-27T04:14:03;13.93;;;5.50;;
10851;SDS011;5479;52.046;6.314;2024-01-27T04:16:31;13.73;;;5.13;;
10851;SDS011;5479;52.046;6.314;2024-01-27T04:19:01;10.97;;;5.20;;
10851;SDS011;5479;52.046;6.314;2024-01-27T04:21:28;12.20;;;5.87;;
10851;SDS011;5479;52.046;6.314;2024-01-27T04:23:56;12.30;;;5.77;;
10851;SDS011;5479;52.046;6.314;2024-01-27T04:26:25;15.10;;;5.60;;
10851;SDS011;5479;52.046;6.314;2024-01-27T04:28:53;15.93;;;6.00;;
10851;SDS011;5479;52.046;6.314;2024-01-27T04:31:22;13.70;;;5.33;;
10851;SDS011;5479;52.046;6.314;2024-01-27T04:33:50;18.30;;;6.37;;
10851;SDS011;5479;52.046;6.314;2024-01-27T04:36:24;14.23;;;5.87;;
10851;SDS011;5479;52.046;6.314;2024-01-27T04:38:52;14.90;;;6.60;;
10851;SDS011;5479;52.046;6.314;2024-01-27T04:41:20;13.37;;;6.50;;
10851;SDS011;5479;52.046;6.314;2024-01-27T04:43:49;14.80;;;6.70;;
10851;SDS011;5479;52.046;6.314;2024-01-27T04:46:17;12.13;;;6.97;;
10851;SDS011;5479;52.046;6.314;2024-01-27T04:48:45;14.33;;;7.23;;
10851;SDS011;5479;52.046;6.314;2024-01-27T04:51:12;17.40;;;7.67;;
10851;SDS011;5479;52.046;6.314;2024-01-27T04:53:40;16.03;;;8.03;;
10851;SDS011;5479;52.046;6.314;2024-01-27T04:56:08;13.83;;;7.40;;
10851;SDS011;5479;52.046;6.314;2024-01-27T04:58:36;17.60;;;7.67;;
10851;SDS011;5479;52.046;6.314;2024-01-27T05:01:05;18.53;;;8.50;;
10851;SDS011;5479;52.046;6.314;2024-01-27T05:03:33;14.77;;;7.27;;
10851;SDS011;5479;52.046;6.314;2024-01-27T05:06:01;13.20;;;8.27;;
10851;SDS011;5479;52.046;6.314;2024-01-27T05:08:29;19.00;;;8.87;;
10851;SDS011;5479;52.046;6.314;2024-01-27T05:10:57;13.83;;;8.60;;
10851;SDS011;5479;52.046;6.314;2024-01-27T05:13:25;13.77;;;8.67;;
10851;SDS011;5479;52.046;6.314;2024-01-27T05:15:52;14.90;;;8.60;;
10851;SDS011;5479;52.046;6.314;2024-01-27T05:18:21;19.30;;;9.23;;
10851;SDS011;5479;52.046;6.314;2024-01-27T05:20:55;15.03;;;9.57;;
10851;SDS011;5479;52.046;6.314;2024-01-27T05:23:22;16.03;;;9.20;;
10851;SDS011;5479;52.046;6.314;2024-01-27T05:25:50;17.23;;;9.30;;
10851;SDS011;5479;52.046;6.314;2024-01-27T05:28:18;18.40;;;10.00;;
10851;SDS011;5479;52.046;6.314;2024-01-27T05:30:47;17.63;;;9.50;;
10851;SDS011;5479;52.046;6.314;2024-01-27T05:33:14;19.73;;;9.70;;
10851;SDS011;5479;52.046;6.314;2024-01-27T05:35:44;17.93;;;9.10;;
10851;SDS011;5479;52.046;6.314;2024-01-27T05:38:11;13.80;;;9.43;;
10851;SDS011;5479;52.046;6.314;2024-01-27T05:40:39;17.40;;;9.43;;
10851;SDS011;5479;52.046;6.314;2024-01-27T05:43:06;20.87;;;10.40;;
10851;SDS011;5479;52.046;6.314;2024-01-27T05:45:34;15.23;;;9.30;;
10851;SDS011;5479;52.046;6.314;2024-01-27T05:48:02;19.17;;;9.97;;
10851;SDS011;5479;52.046;6.314;2024-01-27T05:50:29;18.30;;;10.13;;
10851;SDS011;5479;52.046;6.314;2024-01-27T05:52:59;17.83;;;9.67;;
10851;SDS011;5479;52.046;6.314;2024-01-27T05:55:27;17.47;;;10.47;;
10851;SDS011;5479;52.046;6.314;2024-01-27T05:57:55;20.40;;;10.67;;
10851;SDS011;5479;52.046;6.314;2024-01-27T06:00:23;20.70;;;11.70;;
10851;SDS011;5479;52.046;6.314;2024-01-27T06:02:51;13.40;;;10.23;;
10851;SDS011;5479;52.046;6.314;2024-01-27T06:05:18;20.03;;;11.23;;
10851;SDS011;5479;52.046;6.314;2024-01-27T06:07:46;17.07;;;10.63;;
10851;SDS011;5479;52.046;6.314;2024-01-27T06:10:17;18.93;;;10.80;;
10851;SDS011;5479;52.046;6.314;2024-01-27T06:12:45;19.53;;;10.97;;
10851;SDS011;5479;52.046;6.314;2024-01-27T06:15:13;23.10;;;11.23;;
10851;SDS011;5479;52.046;6.314;2024-01-27T06:17:41;17.00;;;10.67;;
10851;SDS011;5479;52.046;6.314;2024-01-27T06:20:09;17.30;;;10.63;;
10851;SDS011;5479;52.046;6.314;2024-01-27T06:22:37;22.40;;;11.97;;
10851;SDS011;5479;52.046;6.314;2024-01-27T06:25:05;17.47;;;11.50;;
10851;SDS011;5479;52.046;6.314;2024-01-27T06:27:36;16.80;;;10.93;;
10851;SDS011;5479;52.046;6.314;2024-01-27T06:30:04;18.63;;;11.40;;
10851;SDS011;5479;52.046;6.314;2024-01-27T06:32:32;18.13;;;10.87;;
10851;SDS011;5479;52.046;6.314;2024-01-27T06:35:00;18.73;;;11.20;;
10851;SDS011;5479;52.046;6.314;2024-01-27T06:37:29;17.10;;;11.13;;
10851;SDS011;5479;52.046;6.314;2024-01-27T06:39:57;17.00;;;10.87;;
10851;SDS011;5479;52.046;6.314;2024-01-27T06:42:25;17.77;;;11.40;;
10851;SDS011;5479;52.046;6.314;2024-01-27T06:44:54;17.33;;;10.77;;
10851;SDS011;5479;52.046;6.314;2024-01-27T06:47:21;15.83;;;10.53;;
10851;SDS011;5479;52.046;6.314;2024-01-27T06:49:49;15.63;;;10.47;;
10851;SDS011;5479;52.046;6.314;2024-01-27T06:52:17;17.87;;;11.10;;
10851;SDS011;5479;52.046;6.314;2024-01-27T06:54:44;19.43;;;11.90;;
10851;SDS011;5479;52.046;6.314;2024-01-27T06:57:18;16.27;;;11.63;;
10851;SDS011;5479;52.046;6.314;2024-01-27T06:59:47;19.60;;;12.60;;
10851;SDS011;5479;52.046;6.314;2024-01-27T07:02:21;19.20;;;12.87;;
10851;SDS011;5479;52.046;6.314;2024-01-27T07:04:49;16.63;;;12.53;;
10851;SDS011;5479;52.046;6.314;2024-01-27T07:07:17;21.50;;;13.30;;
10851;SDS011;5479;52.046;6.314;2024-01-27T07:09:45;18.87;;;12.70;;
10851;SDS011;5479;52.046;6.314;2024-01-27T07:12:13;17.00;;;12.23;;
10851;SDS011;5479;52.046;6.314;2024-01-27T07:14:40;17.67;;;12.60;;
10851;SDS011;5479;52.046;6.314;2024-01-27T07:17:08;18.70;;;12.83;;
10851;SDS011;5479;52.046;6.314;2024-01-27T07:19:39;22.63;;;13.47;;
10851;SDS011;5479;52.046;6.314;2024-01-27T07:22:08;23.30;;;12.50;;
10851;SDS011;5479;52.046;6.314;2024-01-27T07:24:37;18.03;;;12.70;;
10851;SDS011;5479;52.046;6.314;2024-01-27T07:27:05;19.37;;;13.37;;
10851;SDS011;5479;52.046;6.314;2024-01-27T07:29:33;21.13;;;13.23;;
10851;SDS011;5479;52.046;6.314;2024-01-27T07:32:00;18.90;;;13.37;;
10851;SDS011;5479;52.046;6.314;2024-01-27T07:34:28;16.70;;;12.60;;
10851;SDS011;5479;52.046;6.314;2024-01-27T07:36:57;17.47;;;13.27;;
10851;SDS011;5479;52.046;6.314;2024-01-27T07:39:25;18.53;;;12.47;;
10851;SDS011;5479;52.046;6.314;2024-01-27T07:41:52;20.43;;;12.73;;
10851;SDS011;5479;52.046;6.314;2024-01-27T07:44:20;17.60;;;12.93;;
10851;SDS011;5479;52.046;6.314;2024-01-27T07:46:48;18.90;;;13.30;;
10851;SDS011;5479;52.046;6.314;2024-01-27T07:49:16;21.37;;;12.90;;
10851;SDS011;5479;52.046;6.314;2024-01-27T07:51:44;20.67;;;12.67;;
10851;SDS011;5479;52.046;6.314;2024-01-27T07:54:14;21.73;;;13.20;;
10851;SDS011;5479;52.046;6.314;2024-01-27T07:56:41;19.20;;;12.87;;
10851;SDS011;5479;52.046;6.314;2024-01-27T07:59:09;22.30;;;12.13;;
10851;SDS011;5479;52.046;6.314;2024-01-27T08:01:40;19.73;;;13.60;;
10851;SDS011;5479;52.046;6.314;2024-01-27T08:04:08;21.00;;;13.93;;
10851;SDS011;5479;52.046;6.314;2024-01-27T08:06:45;22.57;;;12.93;;
10851;SDS011;5479;52.046;6.314;2024-01-27T08:09:15;20.50;;;13.13;;
10851;SDS011;5479;52.046;6.314;2024-01-27T08:11:43;17.93;;;12.30;;
10851;SDS011;5479;52.046;6.314;2024-01-27T08:14:11;18.93;;;12.33;;
10851;SDS011;5479;52.046;6.314;2024-01-27T08:16:38;17.63;;;12.00;;
10851;SDS011;5479;52.046;6.314;2024-01-27T08:19:06;17.33;;;11.77;;
10851;SDS011;5479;52.046;6.314;2024-01-27T08:21:34;17.47;;;10.73;;
10851;SDS011;5479;52.046;6.314;2024-01-27T08:24:02;16.50;;;10.30;;
10851;SDS011;5479;52.046;6.314;2024-01-27T08:26:31;16.13;;;9.77;;
10851;SDS011;5479;52.046;6.314;2024-01-27T08:28:59;16.77;;;9.00;;
10851;SDS011;5479;52.046;6.314;2024-01-27T08:31:26;14.10;;;9.30;;
10851;SDS011;5479;52.046;6.314;2024-01-27T08:33:55;12.30;;;8.57;;
10851;SDS011;5479;52.046;6.314;2024-01-27T08:36:23;14.50;;;8.60;;
10851;SDS011;5479;52.046;6.314;2024-01-27T08:38:51;13.47;;;8.50;;
10851;SDS011;5479;52.046;6.314;2024-01-27T08:41:21;12.77;;;8.17;;
10851;SDS011;5479;52.046;6.314;2024-01-27T08:43:50;11.73;;;7.63;;
10851;SDS011;5479;52.046;6.314;2024-01-27T08:46:18;14.43;;;8.17;;
10851;SDS011;5479;52.046;6.314;2024-01-27T08:48:50;11.23;;;7.70;;
10851;SDS011;5479;52.046;6.314;2024-01-27T08:51:19;12.90;;;8.00;;
10851;SDS011;5479;52.046;6.314;2024-01-27T08:53:47;17.13;;;7.90;;
10851;SDS011;5479;52.046;6.314;2024-01-27T08:56:17;13.47;;;8.33;;
10851;SDS011;5479;52.046;6.314;2024-01-27T08:58:46;13.83;;;8.20;;
10851;SDS011;5479;52.046;6.314;2024-01-27T09:01:16;10.97;;;7.13;;
10851;SDS011;5479;52.046;6.314;2024-01-27T09:03:44;13.27;;;7.30;;
10851;SDS011;5479;52.046;6.314;2024-01-27T09:06:12;16.03;;;7.33;;
10851;SDS011;5479;52.046;6.314;2024-01-27T09:08:40;12.10;;;7.37;;
10851;SDS011;5479;52.046;6.314;2024-01-27T09:11:07;11.47;;;6.40;;
10851;SDS011;5479;52.046;6.314;2024-01-27T09:13:35;11.57;;;6.73;;
10851;SDS011;5479;52.046;6.314;2024-01-27T09:16:03;13.87;;;7.37;;
10851;SDS011;5479;52.046;6.314;2024-01-27T09:18:32;12.47;;;7.27;;
10851;SDS011;5479;52.046;6.314;2024-01-27T09:21:00;11.80;;;7.33;;
10851;SDS011;5479;52.046;6.314;2024-01-27T09:23:28;12.60;;;7.23;;
10851;SDS011;5479;52.046;6.314;2024-01-27T09:25:55;13.53;;;7.50;;
10851;SDS011;5479;52.046;6.314;2024-01-27T09:28:23;13.47;;;7.40;;
10851;SDS011;5479;52.046;6.314;2024-01-27T09:30:51;12.20;;;7.30;;
10851;SDS011;5479;52.046;6.314;2024-01-27T09:33:19;12.40;;;7.33;;
10851;SDS011;5479;52.046;6.314;2024-01-27T09:35:52;11.13;;;6.90;;
10851;SDS011;5479;52.046;6.314;2024-01-27T09:38:20;13.00;;;7.03;;
10851;SDS011;5479;52.046;6.314;2024-01-27T09:40:50;11.37;;;6.93;;
10851;SDS011;5479;52.046;6.314;2024-01-27T09:43:18;13.50;;;6.60;;
10851;SDS011;5479;52.046;6.314;2024-01-27T09:45:47;12.33;;;6.20;;
10851;SDS011;5479;52.046;6.314;2024-01-27T09:48:14;11.50;;;6.67;;
10851;SDS011;5479;52.046;6.314;2024-01-27T09:50:45;11.53;;;6.67;;
10851;SDS011;5479;52.046;6.314;2024-01-27T09:53:14;10.87;;;6.33;;
10851;SDS011;5479;52.046;6.314;2024-01-27T09:55:43;11.60;;;6.63;;
10851;SDS011;5479;52.046;6.314;2024-01-27T09:58:11;12.30;;;7.00;;
10851;SDS011;5479;52.046;6.314;2024-01-27T10:00:38;9.23;;;6.03;;
10851;SDS011;5479;52.046;6.314;2024-01-27T10:03:06;13.83;;;7.10;;
10851;SDS011;5479;52.046;6.314;2024-01-27T10:05:36;13.17;;;6.73;;
10851;SDS011;5479;52.046;6.314;2024-01-27T10:08:05;12.97;;;7.07;;
10851;SDS011;5479;52.046;6.314;2024-01-27T10:10:34;14.07;;;7.30;;
10851;SDS011;5479;52.046;6.314;2024-01-27T10:13:02;11.40;;;6.90;;
10851;SDS011;5479;52.046;6.314;2024-01-27T10:15:31;13.00;;;7.33;;
10851;SDS011;5479;52.046;6.314;2024-01-27T10:18:05;13.47;;;7.10;;
10851;SDS011;5479;52.046;6.314;2024-01-27T10:20:33;10.70;;;6.63;;
10851;SDS011;5479;52.046;6.314;2024-01-27T10:23:09;12.67;;;7.50;;
10851;SDS011;5479;52.046;6.314;2024-01-27T10:25:39;15.47;;;6.90;;
10851;SDS011;5479;52.046;6.314;2024-01-27T10:28:07;12.30;;;6.90;;
10851;SDS011;5479;52.046;6.314;2024-01-27T10:30:35;12.30;;;6.93;;
10851;SDS011;5479;52.046;6.314;2024-01-27T10:33:03;10.63;;;6.67;;
10851;SDS011;5479;52.046;6.314;2024-01-27T10:35:31;11.87;;;6.80;;
10851;SDS011;5479;52.046;6.314;2024-01-27T10:37:59;13.60;;;7.30;;
10851;SDS011;5479;52.046;6.314;2024-01-27T10:40:26;15.70;;;7.10;;
10851;SDS011;5479;52.046;6.314;2024-01-27T10:42:59;12.18;;;6.38;;
10851;SDS011;5479;52.046;6.314;2024-01-27T10:45:27;13.47;;;7.23;;
10851;SDS011;5479;52.046;6.314;2024-01-27T10:47:58;11.00;;;6.60;;
10851;SDS011;5479;52.046;6.314;2024-01-27T10:50:27;12.87;;;7.03;;
10851;SDS011;5479;52.046;6.314;2024-01-27T10:52:55;13.83;;;7.70;;
10851;SDS011;5479;52.046;6.314;2024-01-27T10:55:24;11.17;;;6.83;;
10851;SDS011;5479;52.046;6.314;2024-01-27T10:57:52;11.35;;;7.07;;
10851;SDS011;5479;52.046;6.314;2024-01-27T11:00:26;10.95;;;6.35;;
10851;SDS011;5479;52.046;6.314;2024-01-27T11:02:58;12.27;;;6.67;;
10851;SDS011;5479;52.046;6.314;2024-01-27T11:05:27;14.35;;;7.25;;
10851;SDS011;5479;52.046;6.314;2024-01-27T11:07:55;14.27;;;7.60;;
10851;SDS011;5479;52.046;6.314;2024-01-27T11:10:22;9.73;;;6.20;;
10851;SDS011;5479;52.046;6.314;2024-01-27T11:12:51;13.57;;;6.85;;
10851;SDS011;5479;52.046;6.314;2024-01-27T11:15:22;10.75;;;6.90;;
10851;SDS011;5479;52.046;6.314;2024-01-27T11:17:50;13.75;;;6.85;;
10851;SDS011;5479;52.046;6.314;2024-01-27T11:20:18;14.05;;;7.38;;
10851;SDS011;5479;52.046;6.314;2024-01-27T11:22:45;13.38;;;6.22;;
10851;SDS011;5479;52.046;6.314;2024-01-27T11:25:15;11.35;;;6.90;;
10851;SDS011;5479;52.046;6.314;2024-01-27T11:27:44;15.35;;;7.07;;
10851;SDS011;5479;52.046;6.314;2024-01-27T11:30:26;11.32;;;6.88;;
10851;SDS011;5479;52.046;6.314;2024-01-27T11:32:55;11.10;;;6.28;;
10851;SDS011;5479;52.046;6.314;2024-01-27T11:35:23;13.65;;;7.00;;
10851;SDS011;5479;52.046;6.314;2024-01-27T11:37:53;12.60;;;6.22;;
10851;SDS011;5479;52.046;6.314;2024-01-27T11:40:21;12.20;;;6.57;;
10851;SDS011;5479;52.046;6.314;2024-01-27T11:42:55;12.18;;;6.03;;
10851;SDS011;5479;52.046;6.314;2024-01-27T11:45:25;14.95;;;6.60;;
10851;SDS011;5479;52.046;6.314;2024-01-27T11:47:54;13.68;;;6.68;;
10851;SDS011;5479;52.046;6.314;2024-01-27T11:50:22;12.73;;;6.60;;
10851;SDS011;5479;52.046;6.314;2024-01-27T11:52:52;14.40;;;6.10;;
10851;SDS011;5479;52.046;6.314;2024-01-27T11:55:21;10.05;;;5.78;;
10851;SDS011;5479;52.046;6.314;2024-01-27T11:57:48;14.85;;;5.88;;
10851;SDS011;5479;52.046;6.314;2024-01-27T12:00:16;13.38;;;5.95;;
10851;SDS011;5479;52.046;6.314;2024-01-27T12:02:46;12.20;;;5.57;;
10851;SDS011;5479;52.046;6.314;2024-01-27T12:05:17;12.98;;;5.72;;
10851;SDS011;5479;52.046;6.314;2024-01-27T12:07:45;11.05;;;5.82;;
10851;SDS011;5479;52.046;6.314;2024-01-27T12:10:12;10.48;;;5.72;;
10851;SDS011;5479;52.046;6.314;2024-01-27T12:12:40;12.17;;;5.77;;
10851;SDS011;5479;52.046;6.314;2024-01-27T12:15:08;12.13;;;6.10;;
10851;SDS011;5479;52.046;6.314;2024-01-27T12:17:35;12.93;;;5.97;;
10851;SDS011;5479;52.046;6.314;2024-01-27T12:20:06;14.27;;;5.90;;
10851;SDS011;5479;52.046;6.314;2024-01-27T12:22:41;10.87;;;5.50;;
10851;SDS011;5479;52.046;6.314;2024-01-27T12:25:08;12.37;;;5.90;;
10851;SDS011;5479;52.046;6.314;2024-01-27T12:27:36;11.83;;;6.00;;
10851;SDS011;5479;52.046;6.314;2024-01-27T12:30:04;11.30;;;5.50;;
10851;SDS011;5479;52.046;6.314;2024-01-27T12:32:32;9.90;;;5.20;;
10851;SDS011;5479;52.046;6.314;2024-01-27T12:35:05;13.43;;;5.87;;
10851;SDS011;5479;52.046;6.314;2024-01-27T12:37:35;11.43;;;5.90;;
10851;SDS011;5479;52.046;6.314;2024-01-27T12:40:03;12.17;;;5.63;;
10851;SDS011;5479;52.046;6.314;2024-01-27T12:42:44;13.10;;;6.43;;
10851;SDS011;5479;52.046;6.314;2024-01-27T12:45:11;14.23;;;6.10;;
10851;SDS011;5479;52.046;6.314;2024-01-27T12:47:39;11.10;;;5.63;;
10851;SDS011;5479;52.046;6.314;2024-01-27T12:50:07;15.23;;;5.70;;
10851;SDS011;5479;52.046;6.314;2024-01-27T12:52:36;16.10;;;5.43;;
10851;SDS011;5479;52.046;6.314;2024-01-27T12:55:04;12.20;;;5.00;;
10851;SDS011;5479;52.046;6.314;2024-01-27T12:57:32;10.20;;;5.37;;
10851;SDS011;5479;52.046;6.314;2024-01-27T13:00:00;10.90;;;5.20;;
10851;SDS011;5479;52.046;6.314;2024-01-27T13:02:30;11.03;;;5.27;;
10851;SDS011;5479;52.046;6.314;2024-01-27T13:04:58;13.10;;;5.30;;
10851;SDS011;5479;52.046;6.314;2024-01-27T13:07:25;11.17;;;5.20;;
10851;SDS011;5479;52.046;6.314;2024-01-27T13:09:54;12.57;;;5.30;;
10851;SDS011;5479;52.046;6.314;2024-01-27T13:12:22;12.63;;;5.27;;
10851;SDS011;5479;52.046;6.314;2024-01-27T13:14:50;13.50;;;4.97;;
10851;SDS011;5479;52.046;6.314;2024-01-27T13:17:17;10.03;;;4.50;;
10851;SDS011;5479;52.046;6.314;2024-01-27T13:19:45;12.50;;;4.30;;
10851;SDS011;5479;52.046;6.314;2024-01-27T13:22:13;9.13;;;4.30;;
10851;SDS011;5479;52.046;6.314;2024-01-27T13:24:41;8.73;;;4.60;;
10851;SDS011;5479;52.046;6.314;2024-01-27T13:27:10;9.40;;;4.20;;
10851;SDS011;5479;52.046;6.314;2024-01-27T13:29:39;10.47;;;4.30;;
10851;SDS011;5479;52.046;6.314;2024-01-27T13:32:06;10.53;;;4.03;;
10851;SDS011;5479;52.046;6.314;2024-01-27T13:34:34;11.33;;;3.90;;
10851;SDS011;5479;52.046;6.314;2024-01-27T13:37:02;9.50;;;3.70;;
10851;SDS011;5479;52.046;6.314;2024-01-27T13:39:30;10.60;;;4.27;;
10851;SDS011;5479;52.046;6.314;2024-01-27T13:41:58;11.03;;;4.53;;
10851;SDS011;5479;52.046;6.314;2024-01-27T13:44:27;10.27;;;3.97;;
10851;SDS011;5479;52.046;6.314;2024-01-27T13:46:56;12.10;;;4.00;;
10851;SDS011;5479;52.046;6.314;2024-01-27T13:49:27;7.63;;;3.80;;
10851;SDS011;5479;52.046;6.314;2024-01-27T13:51:54;10.00;;;4.00;;
10851;SDS011;5479;52.046;6.314;2024-01-27T13:54:22;11.07;;;4.10;;
10851;SDS011;5479;52.046;6.314;2024-01-27T13:56:50;12.13;;;3.70;;
10851;SDS011;5479;52.046;6.314;2024-01-27T13:59:17;9.00;;;3.50;;
10851;SDS011;5479;52.046;6.314;2024-01-27T14:01:47;8.60;;;3.40;;
10851;SDS011;5479;52.046;6.314;2024-01-27T14:04:14;10.53;;;3.37;;
10851;SDS011;5479;52.046;6.314;2024-01-27T14:06:42;12.63;;;3.60;;
10851;SDS011;5479;52.046;6.314;2024-01-27T14:09:10;10.83;;;3.50;;
10851;SDS011;5479;52.046;6.314;2024-01-27T14:11:37;10.93;;;3.43;;
10851;SDS011;5479;52.046;6.314;2024-01-27T14:14:05;10.83;;;4.03;;
10851;SDS011;5479;52.046;6.314;2024-01-27T14:16:33;9.37;;;3.23;;
10851;SDS011;5479;52.046;6.314;2024-01-27T14:19:02;9.90;;;3.63;;
10851;SDS011;5479;52.046;6.314;2024-01-27T14:21:29;10.57;;;3.20;;
10851;SDS011;5479;52.046;6.314;2024-01-27T14:23:57;10.27;;;3.60;;
10851;SDS011;5479;52.046;6.314;2024-01-27T14:26:28;6.80;;;3.17;;
10851;SDS011;5479;52.046;6.314;2024-01-27T14:29:03;10.40;;;3.43;;
10851;SDS011;5479;52.046;6.314;2024-01-27T14:31:30;11.67;;;3.63;;
10851;SDS011;5479;52.046;6.314;2024-01-27T14:33:59;9.00;;;3.20;;
10851;SDS011;5479;52.046;6.314;2024-01-27T14:36:28;7.33;;;3.30;;
10851;SDS011;5479;52.046;6.314;2024-01-27T14:38:57;8.37;;;3.10;;
10851;SDS011;5479;52.046;6.314;2024-01-27T14:41:24;10.47;;;3.43;;
10851;SDS011;5479;52.046;6.314;2024-01-27T14:43:52;9.33;;;3.57;;
10851;SDS011;5479;52.046;6.314;2024-01-27T14:46:22;9.80;;;3.27;;
10851;SDS011;5479;52.046;6.314;2024-01-27T14:48:50;7.70;;;3.20;;
10851;SDS011;5479;52.046;6.314;2024-01-27T14:51:18;10.33;;;3.30;;
10851;SDS011;5479;52.046;6.314;2024-01-27T14:53:47;10.20;;;3.37;;
10851;SDS011;5479;52.046;6.314;2024-01-27T14:56:14;10.63;;;3.80;;